createdAt,value
2023-01-28T00:01:11.575Z,2.70
2023-01-28T00:03:59.321Z,2.70
2023-01-28T00:06:46.514Z,2.70
2023-01-28T00:09:33.879Z,2.70
2023-01-28T00:12:20.868Z,2.70
2023-01-28T00:15:08.910Z,2.80
2023-01-28T00:17:56.444Z,2.70
2023-01-28T00:20:43.427Z,2.80
2023-01-28T00:23:33.038Z,2.70
2023-01-28T00:26:20.117Z,2.70
2023-01-28T00:29:07.664Z,2.60
2023-01-28T00:31:55.876Z,2.70
2023-01-28T00:34:43.383Z,2.70
2023-01-28T00:37:30.728Z,2.70
2023-01-28T00:40:19.608Z,2.70
2023-01-28T00:43:07.122Z,2.60
2023-01-28T00:45:54.757Z,2.60
2023-01-28T00:48:42.893Z,2.60
2023-01-28T00:51:32.629Z,2.60
2023-01-28T00:54:20.400Z,2.60
2023-01-28T00:57:08.088Z,2.60
2023-01-28T00:59:55.122Z,2.60
2023-01-28T01:02:43.191Z,2.70
2023-01-28T01:05:33.838Z,2.70
2023-01-28T01:08:35.002Z,2.70
2023-01-28T01:11:22.991Z,2.70
2023-01-28T01:14:10.133Z,2.70
2023-01-28T01:16:57.105Z,2.70
2023-01-28T01:19:44.856Z,2.70
2023-01-28T01:22:35.697Z,2.70
2023-01-28T01:25:23.623Z,2.70
2023-01-28T01:28:10.700Z,2.70
2023-01-28T01:31:01.675Z,2.70
2023-01-28T01:33:49.491Z,2.70
2023-01-28T01:36:36.893Z,2.70
2023-01-28T01:39:26.366Z,2.70
2023-01-28T01:42:14.118Z,2.60
2023-01-28T01:45:03.382Z,2.60
2023-01-28T01:48:05.988Z,2.60
2023-01-28T01:50:58.585Z,2.70
2023-01-28T01:53:48.075Z,2.60
2023-01-28T01:56:37.810Z,2.60
2023-01-28T01:59:28.123Z,2.60
2023-01-28T02:02:15.131Z,2.60
2023-01-28T02:05:02.904Z,2.60
2023-01-28T02:07:51.660Z,2.60
2023-01-28T02:10:39.446Z,2.60
2023-01-28T02:13:29.258Z,2.60
2023-01-28T02:16:16.943Z,2.60
2023-01-28T02:19:06.467Z,2.60
2023-01-28T02:22:38.883Z,2.60
2023-01-28T02:26:03.200Z,2.60
2023-01-28T02:29:03.321Z,2.60
2023-01-28T02:31:56.977Z,2.60
2023-01-28T02:34:57.330Z,2.60
2023-01-28T02:38:00.634Z,2.60
2023-01-28T02:41:02.679Z,2.60
2023-01-28T02:43:51.162Z,2.60
2023-01-28T02:46:57.315Z,2.60
2023-01-28T02:49:53.657Z,2.60
2023-01-28T02:53:26.943Z,2.50
2023-01-28T02:56:29.256Z,2.50
2023-01-28T02:59:50.028Z,2.50
2023-01-28T03:02:38.431Z,2.40
2023-01-28T03:05:37.268Z,2.50
2023-01-28T03:08:43.686Z,2.60
2023-01-28T03:11:55.102Z,2.50
2023-01-28T03:15:04.214Z,2.60
2023-01-28T03:18:18.845Z,2.60
2023-01-28T03:21:44.935Z,2.50
2023-01-28T03:25:01.092Z,2.50
2023-01-28T03:28:12.364Z,2.60
2023-01-28T03:31:26.950Z,2.60
2023-01-28T03:34:35.052Z,2.50
2023-01-28T03:37:22.832Z,2.50
2023-01-28T03:40:22.740Z,2.60
2023-01-28T03:43:10.167Z,2.60
2023-01-28T03:45:57.334Z,2.60
2023-01-28T03:48:44.434Z,2.50
2023-01-28T03:51:33.563Z,2.60
2023-01-28T03:54:21.868Z,2.50
2023-01-28T03:57:09.139Z,2.50
2023-01-28T03:59:56.876Z,2.50
2023-01-28T04:02:44.373Z,2.50
2023-01-28T04:05:35.432Z,2.50
2023-01-28T04:08:24.899Z,2.40
2023-01-28T04:11:31.523Z,2.50
2023-01-28T04:14:22.190Z,2.50
2023-01-28T04:17:24.935Z,2.40
2023-01-28T04:20:13.207Z,2.40
2023-01-28T04:23:00.745Z,2.30
2023-01-28T04:25:51.457Z,2.40
2023-01-28T04:28:40.203Z,2.40
2023-01-28T04:31:27.689Z,2.30
2023-01-28T04:34:23.676Z,2.40
2023-01-28T04:37:22.910Z,2.40
2023-01-28T04:40:26.481Z,2.40
2023-01-28T04:43:20.525Z,2.40
2023-01-28T04:46:30.897Z,2.40
2023-01-28T04:49:23.583Z,2.40
2023-01-28T04:52:30.894Z,2.40
2023-01-28T04:55:55.695Z,2.40
2023-01-28T04:58:43.572Z,2.40
2023-01-28T05:01:35.760Z,2.40
2023-01-28T05:04:23.749Z,2.40
2023-01-28T05:07:13.463Z,2.40
2023-01-28T05:10:00.951Z,2.40
2023-01-28T05:12:48.484Z,2.50
2023-01-28T05:15:36.143Z,2.40
2023-01-28T05:18:23.735Z,2.50
2023-01-28T05:21:40.514Z,2.40
2023-01-28T05:24:35.571Z,2.50
2023-01-28T05:27:29.204Z,2.50
2023-01-28T05:30:17.084Z,2.50
2023-01-28T05:33:04.332Z,2.40
2023-01-28T05:35:55.818Z,2.50
2023-01-28T05:38:43.672Z,2.40
2023-01-28T05:41:32.540Z,2.40
2023-01-28T05:44:22.644Z,2.40
2023-01-28T05:47:39.542Z,2.40
2023-01-28T05:50:47.584Z,2.40
2023-01-28T05:53:40.886Z,2.30
2023-01-28T05:56:28.725Z,2.30
2023-01-28T05:59:17.583Z,2.40
2023-01-28T06:02:07.122Z,2.40
2023-01-28T06:04:56.102Z,2.30
2023-01-28T06:07:47.471Z,2.40
2023-01-28T06:10:35.427Z,2.40
2023-01-28T06:13:22.988Z,2.40
2023-01-28T06:16:22.405Z,2.30
2023-01-28T06:19:33.424Z,2.40
2023-01-28T06:22:20.815Z,2.30
2023-01-28T06:25:08.238Z,2.30
2023-01-28T06:27:55.704Z,2.30
2023-01-28T06:30:43.481Z,2.30
2023-01-28T06:36:32.943Z,2.40
2023-01-28T06:39:22.297Z,2.40
2023-01-28T06:42:09.549Z,2.40
2023-01-28T06:44:57.058Z,2.40
2023-01-28T06:47:44.220Z,2.40
2023-01-28T06:50:31.888Z,2.40
2023-01-28T06:53:19.292Z,2.40
2023-01-28T06:56:08.534Z,2.30
2023-01-28T06:58:55.938Z,2.40
2023-01-28T07:01:43.400Z,2.30
2023-01-28T07:04:31.508Z,2.30
2023-01-28T07:07:18.546Z,2.30
2023-01-28T07:10:07.515Z,2.30
2023-01-28T07:12:55.204Z,2.30
2023-01-28T07:15:42.443Z,2.40
2023-01-28T07:18:29.952Z,2.30
2023-01-28T07:21:17.398Z,2.30
2023-01-28T07:24:05.318Z,2.30
2023-01-28T07:26:53.027Z,2.30
2023-01-28T07:29:40.692Z,2.30
2023-01-28T07:32:28.858Z,2.40
2023-01-28T07:35:17.046Z,2.30
2023-01-28T07:38:04.549Z,2.30
2023-01-28T07:40:51.637Z,2.40
2023-01-28T07:43:39.000Z,2.40
2023-01-28T07:50:02.916Z,2.40
2023-01-28T07:52:50.166Z,2.40
2023-01-28T07:55:37.942Z,2.40
2023-01-28T07:58:25.096Z,2.50
2023-01-28T08:01:12.423Z,2.50
2023-01-28T08:03:59.696Z,2.60
2023-01-28T08:06:47.352Z,2.60
2023-01-28T08:09:35.100Z,2.70
2023-01-28T08:12:22.598Z,2.80
2023-01-28T08:15:10.841Z,2.90
2023-01-28T08:17:58.706Z,2.90
2023-01-28T08:20:47.625Z,2.90
2023-01-28T08:23:35.119Z,2.90
2023-01-28T08:26:23.087Z,2.90
2023-01-28T08:29:10.805Z,2.80
2023-01-28T08:31:58.119Z,2.70
2023-01-28T08:34:45.480Z,2.60
2023-01-28T08:37:45.562Z,2.60
2023-01-28T08:40:33.343Z,2.60
2023-01-28T08:43:24.555Z,2.60
2023-01-28T08:46:12.277Z,2.60
2023-01-28T08:49:01.997Z,2.50
2023-01-28T08:51:49.345Z,2.50
2023-01-28T08:54:36.873Z,2.40
2023-01-28T08:57:27.900Z,2.40
2023-01-28T09:00:17.844Z,2.40
2023-01-28T09:03:09.131Z,2.40
2023-01-28T09:06:01.603Z,2.40
2023-01-28T09:08:51.794Z,2.40
2023-01-28T09:11:48.912Z,2.40
2023-01-28T09:14:36.308Z,2.40
2023-01-28T09:17:23.900Z,2.40
2023-01-28T09:20:12.656Z,2.40
2023-01-28T09:23:03.076Z,2.40
2023-01-28T09:26:04.335Z,2.50
2023-01-28T09:28:57.090Z,2.60
2023-01-28T09:34:50.066Z,2.60
2023-01-28T09:37:37.400Z,2.50
2023-01-28T09:40:34.747Z,2.50
2023-01-28T09:43:51.521Z,2.60
2023-01-28T09:46:38.993Z,2.60
2023-01-28T09:49:57.166Z,2.60
2023-01-28T09:52:44.646Z,2.70
2023-01-28T09:55:40.384Z,2.60
2023-01-28T09:58:27.963Z,2.60
2023-01-28T10:01:40.067Z,2.70
2023-01-28T10:04:42.828Z,2.80
2023-01-28T10:07:48.313Z,2.90
2023-01-28T10:10:40.498Z,2.90
2023-01-28T10:14:11.366Z,3.00
2023-01-28T10:17:29.589Z,3.20
2023-01-28T10:20:25.895Z,3.20
2023-01-28T10:23:30.789Z,3.20
2023-01-28T10:26:23.338Z,3.10
2023-01-28T10:29:19.131Z,3.10
2023-01-28T10:33:03.073Z,3.20
2023-01-28T10:42:54.618Z,3.10
2023-01-28T10:46:02.087Z,3.10
2023-01-28T10:49:14.491Z,3.20
2023-01-28T10:52:18.548Z,3.30
2023-01-28T10:55:37.268Z,3.30
2023-01-28T10:58:25.706Z,3.20
2023-01-28T11:01:12.880Z,3.20
2023-01-28T11:04:00.052Z,3.10
2023-01-28T11:07:01.517Z,3.00
2023-01-28T11:09:52.727Z,3.00
2023-01-28T11:12:41.853Z,3.00
2023-01-28T11:15:39.000Z,3.00
2023-01-28T11:18:34.088Z,2.90
2023-01-28T11:21:21.264Z,2.90
2023-01-28T11:24:15.854Z,2.90
2023-01-28T11:27:28.521Z,2.90
2023-01-28T11:30:29.683Z,2.90
2023-01-28T11:33:31.204Z,2.80
2023-01-28T11:36:23.551Z,2.80
2023-01-28T11:42:27.089Z,2.80
2023-01-28T11:45:45.434Z,2.80
2023-01-28T11:49:02.039Z,2.80
2023-01-28T11:55:26.307Z,2.80
2023-01-28T12:03:02.639Z,2.80
2023-01-28T12:06:00.325Z,2.70
2023-01-28T12:09:07.055Z,2.70
2023-01-28T12:12:35.183Z,2.60
2023-01-28T12:15:49.258Z,2.70
2023-01-28T12:19:01.672Z,2.70
2023-01-28T12:22:09.265Z,2.70
2023-01-28T12:25:01.583Z,2.70
2023-01-28T12:28:24.609Z,2.80
2023-01-28T12:31:16.770Z,2.70
2023-01-28T12:34:59.887Z,2.80
2023-01-28T12:38:17.904Z,2.80
2023-01-28T12:41:59.480Z,2.70
2023-01-28T12:45:16.223Z,2.70
2023-01-28T12:52:24.159Z,2.60
2023-01-28T12:55:30.580Z,2.60
2023-01-28T12:57:58.682Z,2.60
2023-01-28T13:04:51.198Z,2.60
2023-01-28T13:07:20.483Z,2.50
2023-01-28T13:10:05.991Z,2.50
2023-01-28T13:12:39.895Z,2.60
2023-01-28T13:15:13.023Z,2.60
2023-01-28T13:17:58.138Z,2.60
2023-01-28T13:30:27.565Z,2.60
2023-01-28T13:33:02.758Z,2.60
2023-01-28T13:35:53.162Z,2.50
2023-01-28T13:38:20.104Z,2.50
2023-01-28T13:40:56.608Z,2.50
2023-01-28T13:43:39.493Z,2.60
2023-01-28T13:46:27.545Z,2.50
2023-01-28T13:48:55.839Z,2.50
2023-01-28T13:51:23.171Z,2.50
2023-01-28T13:54:12.302Z,2.50
2023-01-28T13:56:57.675Z,2.50
2023-01-28T13:59:52.841Z,2.50
2023-01-28T14:02:41.507Z,2.50
2023-01-28T14:05:50.934Z,2.50
2023-01-28T14:08:47.972Z,2.60
2023-01-28T14:11:18.551Z,2.60
2023-01-28T14:13:51.515Z,2.50
2023-01-28T14:16:23.153Z,2.50
2023-01-28T14:18:49.981Z,2.50
2023-01-28T14:21:18.919Z,2.50
2023-01-28T14:23:55.442Z,2.50
2023-01-28T14:27:00.820Z,2.40
2023-01-28T14:29:47.559Z,2.40
2023-01-28T14:32:19.512Z,2.40
2023-01-28T14:34:46.250Z,2.50
2023-01-28T14:37:15.263Z,2.40
2023-01-28T14:39:48.073Z,2.30
2023-01-28T14:42:20.946Z,2.30
2023-01-28T14:44:49.418Z,2.30
2023-01-28T14:47:26.167Z,2.40
2023-01-28T14:50:02.573Z,2.30
2023-01-28T14:52:44.407Z,2.30
2023-01-28T14:55:20.185Z,2.20
2023-01-28T14:57:51.237Z,2.20
2023-01-28T15:00:20.629Z,2.20
2023-01-28T15:02:47.451Z,2.10
2023-01-28T15:05:25.732Z,2.20
2023-01-28T15:07:52.842Z,2.20
2023-01-28T15:10:29.361Z,2.20
2023-01-28T15:13:04.369Z,2.10
2023-01-28T15:15:36.456Z,2.10
2023-01-28T15:18:19.401Z,2.10
2023-01-28T15:20:47.639Z,2.10
2023-01-28T15:25:43.641Z,2.10
2023-01-28T15:28:16.290Z,2.10
2023-01-28T15:30:45.768Z,2.00
2023-01-28T15:33:19.792Z,2.00
2023-01-28T15:35:47.715Z,2.00
2023-01-28T15:38:14.615Z,2.00
2023-01-28T15:40:42.872Z,2.10
2023-01-28T15:43:23.403Z,2.10
2023-01-28T15:45:52.201Z,2.00
2023-01-28T15:48:18.911Z,2.00
2023-01-28T15:50:45.638Z,2.00
2023-01-28T15:53:14.198Z,2.00
2023-01-28T15:55:46.554Z,2.00
2023-01-28T15:58:34.040Z,1.90
2023-01-28T16:01:09.787Z,1.90
2023-01-28T16:03:39.674Z,1.90
2023-01-28T16:06:09.261Z,1.80
2023-01-28T16:08:41.291Z,1.80
2023-01-28T16:11:08.728Z,1.80
2023-01-28T16:13:35.626Z,1.70
2023-01-28T16:16:04.262Z,1.70
2023-01-28T16:18:43.320Z,1.70
2023-01-28T16:21:38.571Z,1.70
2023-01-28T16:24:28.715Z,1.60
2023-01-28T16:27:02.955Z,1.50
2023-01-28T16:29:31.050Z,1.50
2023-01-28T16:32:00.096Z,1.60
2023-01-28T16:34:44.789Z,1.50
2023-01-28T16:37:12.155Z,1.60
2023-01-28T16:39:39.182Z,1.60
2023-01-28T16:42:06.297Z,1.60
2023-01-28T16:44:33.267Z,1.60
2023-01-28T16:47:00.324Z,1.60
2023-01-28T16:49:27.373Z,1.50
2023-01-28T16:51:54.822Z,1.50
2023-01-28T16:54:21.868Z,1.50
2023-01-28T16:56:51.790Z,1.60
2023-01-28T16:59:18.924Z,1.50
2023-01-28T17:01:46.399Z,1.50
2023-01-28T17:04:13.935Z,1.50
2023-01-28T17:06:45.432Z,1.60
2023-01-28T17:09:12.904Z,1.60
2023-01-28T17:11:40.558Z,1.60
2023-01-28T17:14:09.377Z,1.50
2023-01-28T17:16:42.714Z,1.50
2023-01-28T17:19:09.885Z,1.50
2023-01-28T17:21:37.780Z,1.50
2023-01-28T17:24:06.821Z,1.50
2023-01-28T17:26:35.564Z,1.50
2023-01-28T17:29:04.183Z,1.50
2023-01-28T17:31:30.907Z,1.50
2023-01-28T17:33:58.464Z,1.40
2023-01-28T17:36:25.904Z,1.40
2023-01-28T17:38:52.981Z,1.40
2023-01-28T17:41:22.493Z,1.40
2023-01-28T17:43:56.864Z,1.40
2023-01-28T17:46:24.890Z,1.40
2023-01-28T17:48:52.541Z,1.40
2023-01-28T17:51:19.265Z,1.40
2023-01-28T17:53:50.821Z,1.40
2023-01-28T17:56:23.856Z,1.40
2023-01-28T17:58:56.026Z,1.30
2023-01-28T18:01:24.357Z,1.30
2023-01-28T18:03:52.027Z,1.40
2023-01-28T18:06:19.304Z,1.40
2023-01-28T18:08:47.513Z,1.40
2023-01-28T18:11:17.037Z,1.40
2023-01-28T18:13:44.451Z,1.40
2023-01-28T18:16:18.738Z,1.30
2023-01-28T18:18:47.312Z,1.40
2023-01-28T18:21:46.571Z,1.30
2023-01-28T18:27:29.410Z,1.30
2023-01-28T18:29:57.904Z,1.40
2023-01-28T18:32:31.431Z,1.40
2023-01-28T18:34:58.791Z,1.40
2023-01-28T18:37:25.935Z,1.30
2023-01-28T18:39:53.080Z,1.40
2023-01-28T18:42:21.997Z,1.30
2023-01-28T18:44:48.938Z,1.30
2023-01-28T18:47:15.939Z,1.30
2023-01-28T18:52:31.557Z,1.30
2023-01-28T18:55:14.557Z,1.30
2023-01-28T18:57:41.688Z,1.30
2023-01-28T19:00:09.032Z,1.20
2023-01-28T19:02:35.816Z,1.20
2023-01-28T19:05:03.794Z,1.30
2023-01-28T19:07:31.765Z,1.20
2023-01-28T19:09:59.003Z,1.30
2023-01-28T19:12:26.077Z,1.20
2023-01-28T19:14:53.087Z,1.20
2023-01-28T19:17:20.487Z,1.20
2023-01-28T19:19:47.230Z,1.10
2023-01-28T19:22:14.598Z,1.10
2023-01-28T19:24:41.931Z,1.10
2023-01-28T19:27:08.954Z,1.10
2023-01-28T19:29:35.685Z,1.10
2023-01-28T19:32:04.430Z,1.10
2023-01-28T19:34:31.416Z,1.10
2023-01-28T19:36:58.082Z,1.10
2023-01-28T19:39:24.736Z,1.10
2023-01-28T19:41:51.438Z,1.10
2023-01-28T19:44:18.147Z,1.10
2023-01-28T19:46:44.836Z,1.10
2023-01-28T19:49:12.526Z,1.10
2023-01-28T19:51:39.313Z,1.10
2023-01-28T19:54:05.953Z,1.00
2023-01-28T19:56:35.968Z,1.00
2023-01-28T19:59:02.779Z,1.00
2023-01-28T20:01:30.576Z,0.90
2023-01-28T20:03:59.197Z,0.90
2023-01-28T20:06:27.485Z,0.90
2023-01-28T20:08:55.654Z,0.90
2023-01-28T20:11:22.792Z,0.90
2023-01-28T20:13:49.803Z,0.90
2023-01-28T20:16:24.150Z,0.90
2023-01-28T20:18:51.960Z,0.90
2023-01-28T20:21:19.031Z,0.90
2023-01-28T20:23:46.931Z,0.90
2023-01-28T20:26:13.610Z,0.90
2023-01-28T20:28:40.289Z,0.80
2023-01-28T20:31:08.308Z,0.80
2023-01-28T20:33:35.061Z,0.80
2023-01-28T20:36:06.759Z,0.90
2023-01-28T20:38:37.621Z,0.80
2023-01-28T20:41:14.666Z,0.80
2023-01-28T20:43:42.767Z,0.80
2023-01-28T20:46:18.075Z,0.90
2023-01-28T20:48:45.314Z,0.90
2023-01-28T20:51:13.839Z,0.90
2023-01-28T20:53:40.725Z,0.80
2023-01-28T20:56:08.039Z,0.70
2023-01-28T20:58:34.718Z,0.80
2023-01-28T21:01:01.429Z,0.80
2023-01-28T21:03:28.280Z,0.80
2023-01-28T21:05:55.021Z,0.70
2023-01-28T21:08:21.767Z,0.80
2023-01-28T21:10:48.511Z,0.80
2023-01-28T21:13:15.460Z,0.80
2023-01-28T21:15:51.627Z,0.80
2023-01-28T21:18:18.374Z,0.70
2023-01-28T21:20:45.111Z,0.70
2023-01-28T21:23:14.732Z,0.70
2023-01-28T21:25:42.577Z,0.70
2023-01-28T21:28:12.721Z,0.60
2023-01-28T21:30:39.504Z,0.60
2023-01-28T21:33:06.338Z,0.70
2023-01-28T21:35:37.202Z,0.60
2023-01-28T21:38:04.272Z,0.60
2023-01-28T21:40:31.853Z,0.60
2023-01-28T21:42:58.547Z,0.60
2023-01-28T21:45:25.479Z,0.50
2023-01-28T21:47:52.170Z,0.40
2023-01-28T21:50:18.911Z,0.30
2023-01-28T21:52:48.078Z,0.30
2023-01-28T21:55:14.909Z,0.30
2023-01-28T21:57:41.585Z,0.40
2023-01-28T22:00:09.270Z,0.30
2023-01-28T22:02:38.363Z,0.30
2023-01-28T22:05:05.532Z,0.40
2023-01-28T22:07:32.211Z,0.40
2023-01-28T22:09:58.906Z,0.30
2023-01-28T22:12:27.370Z,0.30
2023-01-28T22:14:54.287Z,0.20
2023-01-28T22:17:21.035Z,0.20
2023-01-28T22:19:48.172Z,0.20
2023-01-28T22:22:15.805Z,0.30
2023-01-28T22:24:42.506Z,0.40
2023-01-28T22:27:09.240Z,0.30
2023-01-28T22:29:35.925Z,0.30
2023-01-28T22:32:04.648Z,0.30
2023-01-28T22:34:31.566Z,0.30
2023-01-28T22:36:58.280Z,0.40
2023-01-28T22:39:25.043Z,0.40
2023-01-28T22:41:51.728Z,0.30
2023-01-28T22:44:19.805Z,0.20
2023-01-28T22:46:47.141Z,0.20
2023-01-28T22:49:14.888Z,0.20
2023-01-28T22:51:41.633Z,0.30
2023-01-28T22:54:10.312Z,0.30
2023-01-28T22:56:37.062Z,0.40
2023-01-28T22:59:04.015Z,0.40
2023-01-28T23:01:30.904Z,0.40
2023-01-28T23:03:57.666Z,0.40
2023-01-28T23:06:25.335Z,0.40
2023-01-28T23:08:52.409Z,0.50
2023-01-28T23:11:28.441Z,0.30
2023-01-28T23:14:41.075Z,0.30
2023-01-28T23:17:27.998Z,0.40
2023-01-28T23:20:13.563Z,0.40
2023-01-28T23:22:58.863Z,0.30
2023-01-28T23:25:25.561Z,0.30
2023-01-28T23:27:52.341Z,0.30
2023-01-28T23:30:24.904Z,0.30
2023-01-28T23:32:53.173Z,0.30
2023-01-28T23:35:20.033Z,0.30
2023-01-28T23:37:47.063Z,0.30
2023-01-28T23:40:14.302Z,0.10
2023-01-28T23:42:41.893Z,0.10
2023-01-28T23:45:09.096Z,0.20
2023-01-28T23:47:36.950Z,0.20
2023-01-28T23:50:04.007Z,0.20
2023-01-28T23:52:30.775Z,0.10
2023-01-28T23:54:57.510Z,0.10
2023-01-28T23:57:24.218Z,0.10
2023-01-28T23:59:51.303Z,0.20
